createdAt,value
2022-08-19T00:01:33.686Z,26.10
2022-08-19T00:06:32.136Z,26.11
2022-08-19T00:11:26.250Z,26.23
2022-08-19T00:16:25.329Z,26.30
2022-08-19T00:21:20.809Z,26.23
2022-08-19T00:26:14.228Z,26.04
2022-08-19T00:31:08.921Z,26.04
2022-08-19T00:36:09.492Z,26.19
2022-08-19T00:41:06.623Z,26.12
2022-08-19T00:46:00.884Z,25.98
2022-08-19T00:50:55.881Z,26.01
2022-08-19T00:55:52.795Z,26.22
2022-08-19T01:00:48.278Z,26.18
2022-08-19T01:05:43.957Z,26.10
2022-08-19T01:10:54.325Z,26.16
2022-08-19T01:15:59.885Z,26.05
2022-08-19T01:20:56.016Z,26.04
2022-08-19T01:25:53.870Z,26.07
2022-08-19T01:30:51.043Z,26.09
2022-08-19T01:35:45.764Z,25.99
2022-08-19T01:40:41.375Z,25.99
2022-08-19T01:45:36.822Z,26.02
2022-08-19T01:50:31.591Z,26.08
2022-08-19T01:55:25.779Z,26.04
2022-08-19T02:00:22.933Z,25.91
2022-08-19T02:05:25.556Z,25.94
2022-08-19T02:10:22.324Z,26.06
2022-08-19T02:15:15.300Z,25.96
2022-08-19T02:20:12.340Z,25.56
2022-08-19T02:25:07.347Z,25.41
2022-08-19T02:30:01.267Z,24.98
2022-08-19T02:34:55.513Z,24.55
2022-08-19T02:39:51.794Z,24.79
2022-08-19T02:44:45.785Z,24.50
2022-08-19T02:49:40.023Z,23.95
2022-08-19T02:54:33.655Z,23.69
2022-08-19T02:59:28.169Z,23.46
2022-08-19T03:04:22.643Z,24.25
2022-08-19T03:09:17.141Z,24.15
2022-08-19T03:14:12.007Z,24.45
2022-08-19T03:19:07.480Z,24.56
2022-08-19T03:24:05.369Z,24.71
2022-08-19T03:28:59.287Z,24.91
2022-08-19T03:33:53.528Z,24.82
2022-08-19T03:38:49.874Z,25.07
2022-08-19T03:43:54.420Z,24.86
2022-08-19T03:48:49.590Z,25.28
2022-08-19T03:53:43.157Z,25.45
2022-08-19T03:58:37.256Z,25.63
2022-08-19T04:03:31.415Z,25.74
2022-08-19T04:08:25.433Z,25.94
2022-08-19T04:13:19.542Z,25.93
2022-08-19T04:18:12.502Z,25.98
2022-08-19T04:23:06.258Z,25.97
2022-08-19T04:28:00.339Z,26.03
2022-08-19T04:32:55.032Z,26.07
2022-08-19T04:37:48.970Z,26.10
2022-08-19T04:42:42.616Z,26.11
2022-08-19T04:47:49.114Z,26.00
2022-08-19T04:52:52.230Z,26.08
2022-08-19T04:57:46.237Z,26.17
2022-08-19T05:02:40.312Z,26.19
2022-08-19T05:07:34.227Z,26.23
2022-08-19T05:12:33.087Z,26.09
2022-08-19T05:17:32.280Z,26.11
2022-08-19T05:22:35.524Z,26.30
2022-08-19T05:27:30.776Z,26.23
2022-08-19T05:32:25.334Z,26.11
2022-08-19T05:37:19.404Z,26.24
2022-08-19T05:42:14.008Z,26.22
2022-08-19T05:47:10.099Z,26.13
2022-08-19T05:52:09.782Z,26.26
2022-08-19T05:57:03.732Z,26.28
2022-08-19T06:01:58.837Z,26.29
2022-08-19T06:06:54.491Z,26.18
2022-08-19T06:12:07.859Z,26.28
2022-08-19T06:17:06.857Z,26.29
2022-08-19T06:22:02.600Z,26.17
2022-08-19T06:27:01.981Z,26.13
2022-08-19T06:32:02.197Z,25.49
2022-08-19T06:36:57.883Z,25.13
2022-08-19T06:41:56.792Z,24.93
2022-08-19T06:46:53.673Z,24.68
2022-08-19T06:51:50.381Z,24.89
2022-08-19T06:56:47.510Z,25.16
2022-08-19T07:01:48.820Z,25.54
2022-08-19T07:06:43.332Z,25.47
2022-08-19T07:11:38.480Z,25.63
2022-08-19T07:16:31.799Z,25.49
2022-08-19T07:21:29.730Z,25.56
2022-08-19T07:26:27.981Z,25.50
2022-08-19T07:31:24.971Z,25.36
2022-08-19T07:36:21.311Z,25.57
2022-08-19T07:41:23.449Z,25.58
2022-08-19T07:46:18.359Z,25.48
2022-08-19T07:51:12.564Z,25.49
2022-08-19T07:56:09.655Z,25.57
2022-08-19T08:01:04.116Z,25.37
2022-08-19T08:06:16.536Z,25.37
2022-08-19T08:11:10.356Z,25.39
2022-08-19T08:16:04.919Z,25.67
2022-08-19T08:21:04.769Z,25.66
2022-08-19T08:25:59.580Z,25.66
2022-08-19T08:30:53.651Z,25.72
2022-08-19T08:35:47.154Z,25.66
2022-08-19T08:40:54.460Z,25.81
2022-08-19T08:45:54.292Z,25.86
2022-08-19T08:50:52.318Z,25.92
2022-08-19T08:55:47.386Z,25.80
2022-08-19T09:00:53.658Z,25.96
2022-08-19T09:05:59.543Z,25.86
2022-08-19T09:10:56.157Z,26.05
2022-08-19T09:15:56.954Z,25.92
2022-08-19T09:21:10.559Z,26.05
2022-08-19T09:26:16.521Z,25.95
2022-08-19T09:31:09.976Z,26.01
2022-08-19T09:36:09.024Z,25.98
2022-08-19T09:41:07.461Z,26.00
2022-08-19T09:46:02.103Z,25.81
2022-08-19T09:50:55.764Z,25.99
2022-08-19T09:55:49.108Z,25.84
2022-08-19T10:00:43.060Z,26.01
2022-08-19T10:05:55.329Z,25.99
2022-08-19T10:10:50.351Z,25.85
2022-08-19T10:15:47.736Z,25.65
2022-08-19T10:20:43.442Z,25.78
2022-08-19T10:25:38.400Z,25.29
2022-08-19T10:30:32.476Z,25.70
2022-08-19T10:35:31.385Z,25.74
2022-08-19T10:40:36.433Z,25.86
2022-08-19T10:45:30.038Z,25.95
2022-08-19T10:50:41.844Z,25.93
2022-08-19T10:55:53.715Z,26.01
2022-08-19T11:00:54.579Z,26.01
2022-08-19T11:05:50.742Z,25.72
2022-08-19T11:10:46.794Z,25.95
2022-08-19T11:15:44.884Z,25.81
2022-08-19T11:20:39.041Z,25.39
2022-08-19T11:25:32.986Z,25.70
2022-08-19T11:30:26.450Z,25.92
2022-08-19T11:35:21.359Z,25.86
2022-08-19T11:40:15.711Z,25.78
2022-08-19T11:45:11.956Z,25.82
2022-08-19T11:50:07.801Z,25.57
2022-08-19T11:55:01.994Z,25.63
2022-08-19T11:59:55.924Z,25.39
2022-08-19T12:04:50.580Z,25.62
2022-08-19T12:09:44.631Z,25.33
2022-08-19T12:14:39.448Z,25.63
2022-08-19T12:19:32.825Z,25.79
2022-08-19T12:24:26.532Z,25.77
2022-08-19T12:29:26.011Z,25.38
2022-08-19T12:34:24.769Z,25.95
2022-08-19T12:39:19.229Z,25.76
2022-08-19T12:44:13.891Z,25.36
2022-08-19T12:49:17.912Z,25.22
2022-08-19T12:54:22.229Z,25.86
2022-08-19T12:59:19.104Z,25.60
2022-08-19T13:04:12.113Z,25.78
2022-08-19T13:09:05.836Z,25.95
2022-08-19T13:13:59.866Z,25.84
2022-08-19T13:18:54.419Z,25.73
2022-08-19T13:23:48.915Z,25.78
2022-08-19T13:29:02.845Z,25.82
2022-08-19T13:33:57.107Z,25.71
2022-08-19T13:38:51.700Z,25.77
2022-08-19T13:43:45.685Z,25.76
2022-08-19T13:48:40.209Z,25.43
2022-08-19T13:53:34.171Z,25.73
2022-08-19T13:58:27.991Z,25.89
2022-08-19T14:03:21.556Z,25.92
2022-08-19T14:08:20.020Z,25.77
2022-08-19T14:13:16.638Z,25.98
2022-08-19T14:18:11.133Z,26.00
2022-08-19T14:23:04.594Z,25.99
2022-08-19T14:27:58.041Z,26.01
2022-08-19T14:32:52.093Z,25.81
2022-08-19T14:37:47.569Z,25.92
2022-08-19T14:42:40.369Z,26.05
2022-08-19T14:47:34.134Z,25.97
2022-08-19T14:52:27.861Z,25.95
2022-08-19T14:57:21.398Z,26.02
2022-08-19T15:02:33.876Z,26.08
2022-08-19T15:07:29.746Z,26.02
2022-08-19T15:12:24.067Z,26.07
2022-08-19T15:17:18.926Z,25.92
2022-08-19T15:22:12.804Z,26.07
2022-08-19T15:27:07.702Z,26.05
2022-08-19T15:32:01.347Z,26.09
2022-08-19T15:36:56.032Z,26.05
2022-08-19T15:41:50.022Z,25.85
2022-08-19T15:46:46.273Z,26.09
2022-08-19T15:51:43.411Z,26.09
2022-08-19T15:56:57.849Z,26.08
2022-08-19T16:02:10.672Z,26.09
2022-08-19T16:07:09.300Z,25.95
2022-08-19T16:12:05.178Z,26.07
2022-08-19T16:16:59.034Z,26.08
2022-08-19T16:21:55.008Z,26.10
2022-08-19T16:26:50.003Z,26.08
2022-08-19T16:31:46.961Z,26.03
2022-08-19T16:36:42.675Z,26.04
2022-08-19T16:41:37.946Z,26.07
2022-08-19T16:46:32.179Z,26.12
2022-08-19T16:51:27.027Z,26.14
2022-08-19T16:56:20.689Z,26.14
2022-08-19T17:01:14.050Z,26.13
2022-08-19T17:06:29.523Z,26.17
2022-08-19T17:11:24.888Z,25.91
2022-08-19T17:16:22.269Z,26.03
2022-08-19T17:21:15.505Z,26.04
2022-08-19T17:26:09.012Z,26.22
2022-08-19T17:31:10.355Z,26.25
2022-08-19T17:36:05.104Z,26.30
2022-08-19T17:41:05.524Z,26.16
2022-08-19T17:46:03.325Z,26.30
2022-08-19T17:50:57.906Z,26.02
2022-08-19T17:55:52.499Z,26.26
2022-08-19T18:00:53.315Z,26.33
2022-08-19T18:05:48.764Z,26.34
2022-08-19T18:10:42.517Z,26.34
2022-08-19T18:15:36.691Z,26.40
2022-08-19T18:20:34.291Z,26.34
2022-08-19T18:25:28.399Z,26.21
2022-08-19T18:30:22.546Z,26.29
2022-08-19T18:35:19.696Z,26.25
2022-08-19T18:40:34.332Z,26.23
2022-08-19T18:45:46.679Z,26.07
2022-08-19T18:50:44.139Z,26.18
2022-08-19T18:55:37.920Z,26.17
2022-08-19T19:00:32.624Z,26.34
2022-08-19T19:05:28.337Z,26.38
2022-08-19T19:10:21.661Z,26.27
2022-08-19T19:15:15.861Z,26.22
2022-08-19T19:20:10.740Z,26.24
2022-08-19T19:25:04.352Z,26.17
2022-08-19T19:29:58.621Z,26.01
2022-08-19T19:34:52.474Z,25.88
2022-08-19T19:39:48.339Z,26.05
2022-08-19T19:44:47.139Z,26.02
2022-08-19T19:50:03.891Z,26.00
2022-08-19T19:55:00.385Z,25.88
2022-08-19T19:59:55.285Z,25.76
2022-08-19T20:04:49.043Z,25.49
2022-08-19T20:09:58.695Z,25.54
2022-08-19T20:14:53.213Z,25.49
2022-08-19T20:19:46.683Z,25.36
2022-08-19T20:24:43.218Z,25.24
2022-08-19T20:29:38.929Z,25.16
2022-08-19T20:34:34.518Z,25.22
2022-08-19T20:39:27.699Z,25.12
2022-08-19T20:44:21.774Z,25.05
2022-08-19T20:49:15.671Z,25.41
2022-08-19T20:54:09.143Z,25.66
2022-08-19T20:59:04.925Z,25.79
2022-08-19T21:03:58.745Z,25.72
2022-08-19T21:08:52.628Z,25.89
2022-08-19T21:13:47.036Z,25.91
2022-08-19T21:18:40.723Z,25.98
2022-08-19T21:23:34.460Z,25.88
2022-08-19T21:28:29.976Z,26.02
2022-08-19T21:33:34.879Z,26.02
2022-08-19T21:38:28.755Z,25.91
2022-08-19T21:43:22.958Z,26.08
2022-08-19T21:48:16.792Z,26.07
2022-08-19T21:53:11.318Z,26.09
2022-08-19T21:58:07.316Z,26.08
2022-08-19T22:03:02.297Z,25.98
2022-08-19T22:07:59.833Z,26.08
2022-08-19T22:12:57.701Z,26.10
2022-08-19T22:17:52.221Z,26.01
2022-08-19T22:22:56.941Z,25.96
2022-08-19T22:28:00.490Z,26.13
2022-08-19T22:33:01.462Z,26.14
2022-08-19T22:37:55.826Z,26.14
2022-08-19T22:42:49.437Z,26.09
2022-08-19T22:47:42.886Z,26.02
2022-08-19T22:52:36.053Z,26.10
2022-08-19T22:57:29.460Z,25.99
2022-08-19T23:02:28.629Z,26.13
2022-08-19T23:07:23.850Z,26.14
2022-08-19T23:12:17.684Z,25.99
2022-08-19T23:17:11.608Z,25.97
2022-08-19T23:22:06.008Z,26.00
2022-08-19T23:27:18.295Z,26.07
2022-08-19T23:32:12.279Z,26.10
2022-08-19T23:37:09.395Z,26.11
2022-08-19T23:42:03.190Z,26.11
2022-08-19T23:46:59.066Z,26.05
2022-08-19T23:51:58.082Z,25.94
2022-08-19T23:56:52.308Z,26.09
